createdAt,value
2022-11-07T00:02:06.600Z,10.39
2022-11-07T00:07:10.731Z,10.38
2022-11-07T00:12:14.449Z,10.35
2022-11-07T00:17:19.771Z,10.32
2022-11-07T00:22:23.483Z,10.30
2022-11-07T00:27:27.275Z,10.29
2022-11-07T00:32:32.343Z,10.27
2022-11-07T00:37:35.973Z,10.20
2022-11-07T00:42:39.699Z,10.20
2022-11-07T00:47:44.726Z,10.13
2022-11-07T00:52:48.411Z,10.09
2022-11-07T00:57:52.126Z,10.09
2022-11-07T01:03:11.564Z,10.12
2022-11-07T01:08:15.311Z,10.08
2022-11-07T01:13:19.086Z,10.05
2022-11-07T01:18:24.086Z,10.08
2022-11-07T01:23:27.743Z,10.13
2022-11-07T01:28:31.438Z,10.14
2022-11-07T01:33:36.834Z,10.13
2022-11-07T01:38:42.464Z,10.14
2022-11-07T01:43:47.649Z,10.10
2022-11-07T01:48:57.672Z,10.15
2022-11-07T01:54:01.729Z,10.18
2022-11-07T01:59:06.229Z,10.30
2022-11-07T02:04:13.050Z,10.33
2022-11-07T02:09:16.993Z,10.44
2022-11-07T02:14:20.819Z,10.47
2022-11-07T02:19:34.376Z,10.41
2022-11-07T02:24:41.117Z,10.42
2022-11-07T02:29:48.606Z,10.45
2022-11-07T02:34:59.071Z,10.36
2022-11-07T02:40:07.655Z,10.45
2022-11-07T02:45:14.932Z,10.39
2022-11-07T02:50:18.939Z,10.35
2022-11-07T02:55:24.006Z,10.35
2022-11-07T03:00:27.771Z,10.37
2022-11-07T03:05:31.471Z,10.37
2022-11-07T03:10:36.467Z,10.34
2022-11-07T03:15:40.203Z,10.34
2022-11-07T03:20:43.866Z,10.31
2022-11-07T03:25:48.871Z,10.35
2022-11-07T03:30:52.740Z,10.39
2022-11-07T03:35:56.398Z,10.42
2022-11-07T03:41:01.398Z,10.48
2022-11-07T03:46:05.110Z,10.50
2022-11-07T03:51:10.055Z,10.55
2022-11-07T03:56:15.074Z,10.61
2022-11-07T04:01:18.819Z,10.66
2022-11-07T04:06:23.408Z,10.73
2022-11-07T04:11:46.074Z,10.74
2022-11-07T04:17:07.495Z,10.73
2022-11-07T04:22:11.229Z,10.71
2022-11-07T04:27:34.551Z,10.73
2022-11-07T04:32:38.238Z,10.69
2022-11-07T04:37:42.504Z,10.74
2022-11-07T04:42:49.006Z,10.75
2022-11-07T04:47:52.838Z,10.76
2022-11-07T04:52:56.618Z,10.82
2022-11-07T04:58:01.605Z,10.90
2022-11-07T05:03:05.613Z,10.94
2022-11-07T05:08:09.878Z,10.94
2022-11-07T05:13:15.080Z,10.97
2022-11-07T05:18:21.178Z,11.01
2022-11-07T05:23:25.212Z,10.98
2022-11-07T05:28:38.713Z,10.99
2022-11-07T05:33:43.482Z,10.96
2022-11-07T05:38:48.913Z,10.98
2022-11-07T05:43:53.959Z,10.97
2022-11-07T05:49:00.914Z,10.99
2022-11-07T05:54:05.243Z,10.97
2022-11-07T05:59:11.239Z,10.93
2022-11-07T06:04:14.877Z,10.90
2022-11-07T06:09:18.530Z,10.91
2022-11-07T06:14:23.844Z,10.98
2022-11-07T06:19:27.544Z,11.01
2022-11-07T06:24:31.202Z,11.03
2022-11-07T06:29:36.230Z,11.05
2022-11-07T06:34:39.948Z,11.05
2022-11-07T06:39:43.742Z,11.03
2022-11-07T06:44:48.750Z,11.03
2022-11-07T06:49:52.491Z,10.94
2022-11-07T06:54:56.182Z,10.94
2022-11-07T07:00:01.241Z,10.96
2022-11-07T07:05:05.298Z,10.91
2022-11-07T07:10:10.213Z,10.97
2022-11-07T07:15:15.271Z,10.92
2022-11-07T07:20:19.116Z,10.95
2022-11-07T07:25:23.121Z,10.98
2022-11-07T07:30:28.145Z,10.97
2022-11-07T07:35:32.128Z,11.01
2022-11-07T07:40:35.779Z,11.00
2022-11-07T07:45:40.768Z,11.04
2022-11-07T07:50:44.576Z,11.15
2022-11-07T07:55:48.802Z,11.21
2022-11-07T08:00:54.982Z,11.23
2022-11-07T08:05:59.850Z,11.34
2022-11-07T08:11:05.511Z,11.36
2022-11-07T08:16:11.020Z,11.37
2022-11-07T08:21:14.785Z,11.42
2022-11-07T08:26:18.475Z,11.56
2022-11-07T08:31:23.627Z,11.73
2022-11-07T08:36:27.774Z,11.88
2022-11-07T08:41:31.473Z,11.98
2022-11-07T08:46:36.526Z,11.97
2022-11-07T08:51:40.241Z,12.05
2022-11-07T08:56:43.963Z,12.04
2022-11-07T09:02:26.620Z,11.97
2022-11-07T09:07:12.663Z,12.03
2022-11-07T09:12:16.306Z,11.98
2022-11-07T09:17:21.343Z,12.04
2022-11-07T09:22:25.084Z,12.09
2022-11-07T09:27:28.746Z,12.08
2022-11-07T09:32:48.776Z,12.21
2022-11-07T09:37:52.609Z,12.25
2022-11-07T09:43:09.296Z,12.24
2022-11-07T09:48:22.136Z,12.39
2022-11-07T09:53:31.661Z,12.43
2022-11-07T09:58:39.219Z,12.47
2022-11-07T10:04:10.293Z,12.68
2022-11-07T10:09:16.130Z,12.68
2022-11-07T10:14:29.741Z,12.84
2022-11-07T10:20:05.342Z,12.73
2022-11-07T10:25:21.318Z,12.78
2022-11-07T10:30:25.011Z,12.71
2022-11-07T10:35:32.980Z,12.81
2022-11-07T10:40:41.497Z,12.88
2022-11-07T10:45:45.726Z,12.90
2022-11-07T10:50:54.807Z,12.95
2022-11-07T10:55:59.475Z,12.97
2022-11-07T11:01:06.422Z,13.13
2022-11-07T11:06:20.647Z,13.37
2022-11-07T11:11:33.072Z,13.51
2022-11-07T11:16:39.941Z,13.45
2022-11-07T11:21:46.994Z,13.41
2022-11-07T11:26:53.046Z,13.45
2022-11-07T11:31:59.590Z,13.48
2022-11-07T11:37:10.488Z,13.77
2022-11-07T11:42:26.167Z,13.89
2022-11-07T11:47:37.714Z,13.95
2022-11-07T11:52:43.164Z,14.04
2022-11-07T11:57:54.318Z,14.38
2022-11-07T12:03:37.904Z,14.23
2022-11-07T12:09:18.148Z,14.23
2022-11-07T12:14:57.062Z,14.77
2022-11-07T12:20:18.015Z,14.82
2022-11-07T12:25:29.775Z,14.77
2022-11-07T12:30:43.902Z,14.61
2022-11-07T12:35:55.321Z,14.43
2022-11-07T12:41:08.111Z,14.33
2022-11-07T12:46:22.303Z,14.37
2022-11-07T12:51:36.166Z,14.21
2022-11-07T12:56:41.402Z,14.15
2022-11-07T13:01:50.975Z,14.12
2022-11-07T13:07:00.987Z,14.14
2022-11-07T13:12:14.655Z,14.04
2022-11-07T13:17:20.480Z,14.08
2022-11-07T13:22:32.979Z,14.05
2022-11-07T13:27:40.765Z,14.08
2022-11-07T13:32:46.270Z,14.17
2022-11-07T13:37:55.371Z,14.20
2022-11-07T13:43:03.405Z,14.29
2022-11-07T13:48:16.584Z,14.39
2022-11-07T13:53:26.245Z,14.23
2022-11-07T13:58:33.301Z,14.25
2022-11-07T14:03:37.084Z,14.36
2022-11-07T14:08:45.032Z,14.27
2022-11-07T14:13:53.679Z,14.26
2022-11-07T14:19:00.011Z,14.19
2022-11-07T14:24:04.386Z,14.21
2022-11-07T14:29:09.492Z,14.20
2022-11-07T14:34:19.610Z,14.25
2022-11-07T14:39:25.365Z,14.23
2022-11-07T14:44:53.255Z,14.22
2022-11-07T14:49:58.751Z,14.29
2022-11-07T14:55:08.922Z,14.19
2022-11-07T15:00:17.289Z,14.21
2022-11-07T15:05:24.762Z,14.22
2022-11-07T15:10:34.455Z,14.03
2022-11-07T15:15:39.504Z,14.04
2022-11-07T15:20:43.207Z,13.97
2022-11-07T15:25:54.376Z,13.93
2022-11-07T15:31:01.481Z,13.86
2022-11-07T15:36:06.016Z,13.81
2022-11-07T15:41:11.379Z,13.81
2022-11-07T15:46:25.397Z,13.80
2022-11-07T15:51:29.113Z,13.81
2022-11-07T15:56:32.828Z,13.76
2022-11-07T16:01:38.114Z,13.79
2022-11-07T16:06:45.973Z,13.79
2022-11-07T16:11:50.073Z,13.78
2022-11-07T16:16:55.139Z,13.79
2022-11-07T16:21:58.875Z,13.75
2022-11-07T16:27:02.749Z,13.77
2022-11-07T16:32:07.877Z,13.78
2022-11-07T16:37:12.675Z,13.82
2022-11-07T16:42:16.997Z,13.81
2022-11-07T16:47:23.875Z,13.81
2022-11-07T16:52:28.194Z,13.81
2022-11-07T16:57:33.490Z,13.80
2022-11-07T17:02:38.637Z,13.80
2022-11-07T17:07:42.610Z,13.79
2022-11-07T17:12:46.262Z,13.80
2022-11-07T17:17:54.113Z,13.79
2022-11-07T17:23:01.644Z,13.80
2022-11-07T17:28:05.845Z,13.84
2022-11-07T17:33:11.042Z,13.77
2022-11-07T17:38:17.521Z,13.70
2022-11-07T17:43:21.526Z,13.66
2022-11-07T17:48:26.831Z,13.63
2022-11-07T17:53:32.291Z,13.61
2022-11-07T17:58:35.957Z,13.59
2022-11-07T18:03:41.283Z,13.57
2022-11-07T18:08:52.293Z,13.51
2022-11-07T18:13:58.529Z,13.50
2022-11-07T18:19:04.030Z,13.50
2022-11-07T18:24:08.305Z,13.48
2022-11-07T18:29:13.996Z,13.49
2022-11-07T18:34:20.543Z,13.51
2022-11-07T18:39:24.953Z,13.52
2022-11-07T18:44:28.758Z,13.53
2022-11-07T18:49:34.043Z,13.54
2022-11-07T18:54:37.846Z,13.55
2022-11-07T18:59:41.644Z,13.58
2022-11-07T19:04:46.916Z,13.51
2022-11-07T19:09:50.690Z,13.45
2022-11-07T19:14:54.531Z,13.49
2022-11-07T19:19:59.890Z,13.47
2022-11-07T19:25:03.603Z,13.42
2022-11-07T19:30:09.668Z,13.36
2022-11-07T19:35:16.201Z,13.25
2022-11-07T19:40:20.276Z,13.22
2022-11-07T19:45:26.269Z,13.18
2022-11-07T19:50:31.492Z,13.10
2022-11-07T19:55:37.117Z,13.15
2022-11-07T20:00:41.012Z,13.20
2022-11-07T20:05:47.850Z,13.18
2022-11-07T20:10:51.677Z,13.23
2022-11-07T20:15:57.565Z,13.24
2022-11-07T20:21:04.155Z,13.24
2022-11-07T20:26:09.046Z,13.35
2022-11-07T20:31:13.830Z,13.37
2022-11-07T20:36:20.028Z,13.38
2022-11-07T20:41:24.211Z,13.40
2022-11-07T20:46:28.475Z,13.42
2022-11-07T20:51:33.978Z,13.41
2022-11-07T20:56:39.268Z,13.35
2022-11-07T21:01:43.153Z,13.42
2022-11-07T21:06:48.638Z,13.38
2022-11-07T21:11:52.490Z,13.39
2022-11-07T21:16:56.203Z,13.41
2022-11-07T21:22:01.435Z,13.38
2022-11-07T21:27:05.911Z,13.37
2022-11-07T21:32:09.667Z,13.36
2022-11-07T21:37:14.765Z,13.33
2022-11-07T21:42:18.557Z,13.31
2022-11-07T21:47:22.280Z,13.25
2022-11-07T21:52:27.421Z,13.28
2022-11-07T21:57:31.142Z,13.18
2022-11-07T22:02:35.101Z,13.17
2022-11-07T22:07:40.217Z,13.12
2022-11-07T22:12:43.948Z,12.95
2022-11-07T22:17:47.604Z,12.82
2022-11-07T22:22:52.614Z,12.77
2022-11-07T22:27:56.277Z,12.70
2022-11-07T22:32:59.948Z,12.62
2022-11-07T22:38:04.965Z,12.51
2022-11-07T22:43:08.695Z,12.47
2022-11-07T22:48:12.399Z,12.44
2022-11-07T22:53:17.741Z,12.32
2022-11-07T22:58:21.613Z,12.28
2022-11-07T23:03:25.387Z,12.24
2022-11-07T23:08:30.454Z,12.21
2022-11-07T23:13:34.185Z,12.12
2022-11-07T23:18:37.834Z,12.08
2022-11-07T23:23:43.554Z,12.03
2022-11-07T23:28:47.726Z,12.01
2022-11-07T23:33:51.421Z,11.91
2022-11-07T23:38:56.482Z,11.87
2022-11-07T23:44:00.496Z,11.79
2022-11-07T23:49:21.817Z,11.82
2022-11-07T23:54:44.416Z,11.75
